sensor_id;sensor_type;location;lat;lon;timestamp;P1;durP1;ratioP1;P2;durP2;ratioP2
57441;SDS011;43284;47.042;15.498;2022-12-29T00:02:08;21.93;;;9.30;;
57441;SDS011;43284;47.042;15.498;2022-12-29T00:04:34;22.92;;;9.50;;
57441;SDS011;43284;47.042;15.498;2022-12-29T00:06:59;22.00;;;10.00;;
57441;SDS011;43284;47.042;15.498;2022-12-29T00:09:25;22.13;;;9.90;;
57441;SDS011;43284;47.042;15.498;2022-12-29T00:11:51;27.13;;;9.35;;
57441;SDS011;43284;47.042;15.498;2022-12-29T00:14:16;24.65;;;9.88;;
57441;SDS011;43284;47.042;15.498;2022-12-29T00:17:01;26.30;;;11.40;;
57441;SDS011;43284;47.042;15.498;2022-12-29T00:19:26;25.45;;;10.93;;
57441;SDS011;43284;47.042;15.498;2022-12-29T00:22:14;28.73;;;11.85;;
57441;SDS011;43284;47.042;15.498;2022-12-29T00:24:59;21.70;;;10.75;;
57441;SDS011;43284;47.042;15.498;2022-12-29T00:27:43;24.10;;;9.75;;
57441;SDS011;43284;47.042;15.498;2022-12-29T00:30:27;22.10;;;10.20;;
57441;SDS011;43284;47.042;15.498;2022-12-29T00:33:15;23.50;;;8.85;;
57441;SDS011;43284;47.042;15.498;2022-12-29T00:36:02;22.17;;;8.80;;
57441;SDS011;43284;47.042;15.498;2022-12-29T00:38:32;19.83;;;8.77;;
57441;SDS011;43284;47.042;15.498;2022-12-29T00:41:19;22.92;;;9.45;;
57441;SDS011;43284;47.042;15.498;2022-12-29T00:46:32;24.10;;;9.05;;
57441;SDS011;43284;47.042;15.498;2022-12-29T00:49:02;20.30;;;9.63;;
57441;SDS011;43284;47.042;15.498;2022-12-29T00:51:46;24.50;;;9.90;;
57441;SDS011;43284;47.042;15.498;2022-12-29T00:54:12;18.70;;;8.10;;
57441;SDS011;43284;47.042;15.498;2022-12-29T00:56:38;21.52;;;9.00;;
57441;SDS011;43284;47.042;15.498;2022-12-29T00:59:04;20.43;;;9.43;;
57441;SDS011;43284;47.042;15.498;2022-12-29T01:01:32;17.23;;;8.47;;
57441;SDS011;43284;47.042;15.498;2022-12-29T01:03:58;17.23;;;8.43;;
57441;SDS011;43284;47.042;15.498;2022-12-29T01:06:24;15.93;;;7.67;;
57441;SDS011;43284;47.042;15.498;2022-12-29T01:08:50;21.20;;;8.10;;
57441;SDS011;43284;47.042;15.498;2022-12-29T01:11:36;17.57;;;8.47;;
57441;SDS011;43284;47.042;15.498;2022-12-29T01:14:02;18.07;;;7.60;;
57441;SDS011;43284;47.042;15.498;2022-12-29T01:16:28;14.90;;;6.97;;
57441;SDS011;43284;47.042;15.498;2022-12-29T01:18:53;14.27;;;7.30;;
57441;SDS011;43284;47.042;15.498;2022-12-29T01:21:19;18.43;;;8.13;;
57441;SDS011;43284;47.042;15.498;2022-12-29T01:23:44;16.27;;;7.43;;
57441;SDS011;43284;47.042;15.498;2022-12-29T01:26:10;18.87;;;8.87;;
57441;SDS011;43284;47.042;15.498;2022-12-29T01:28:41;20.80;;;8.20;;
57441;SDS011;43284;47.042;15.498;2022-12-29T01:31:07;14.48;;;6.70;;
57441;SDS011;43284;47.042;15.498;2022-12-29T01:33:33;15.83;;;7.33;;
57441;SDS011;43284;47.042;15.498;2022-12-29T01:36:09;13.93;;;7.28;;
57441;SDS011;43284;47.042;15.498;2022-12-29T01:38:39;14.93;;;7.50;;
57441;SDS011;43284;47.042;15.498;2022-12-29T01:41:05;18.52;;;8.43;;
57441;SDS011;43284;47.042;15.498;2022-12-29T01:48:59;18.30;;;7.57;;
57441;SDS011;43284;47.042;15.498;2022-12-29T01:54:31;16.90;;;7.43;;
57441;SDS011;43284;47.042;15.498;2022-12-29T01:57:02;16.83;;;7.30;;
57441;SDS011;43284;47.042;15.498;2022-12-29T01:59:31;18.83;;;8.05;;
57441;SDS011;43284;47.042;15.498;2022-12-29T02:01:59;14.45;;;7.50;;
57441;SDS011;43284;47.042;15.498;2022-12-29T02:04:26;17.50;;;8.10;;
57441;SDS011;43284;47.042;15.498;2022-12-29T02:06:57;14.57;;;7.33;;
57441;SDS011;43284;47.042;15.498;2022-12-29T02:09:26;22.37;;;9.27;;
57441;SDS011;43284;47.042;15.498;2022-12-29T02:11:52;19.30;;;7.93;;
57441;SDS011;43284;47.042;15.498;2022-12-29T02:14:18;20.13;;;8.65;;
57441;SDS011;43284;47.042;15.498;2022-12-29T02:30:40;17.07;;;7.93;;
57441;SDS011;43284;47.042;15.498;2022-12-29T02:33:18;20.57;;;8.87;;
57441;SDS011;43284;47.042;15.498;2022-12-29T02:35:52;21.17;;;9.80;;
57441;SDS011;43284;47.042;15.498;2022-12-29T02:38:38;18.03;;;7.83;;
57441;SDS011;43284;47.042;15.498;2022-12-29T02:41:16;20.17;;;8.37;;
57441;SDS011;43284;47.042;15.498;2022-12-29T02:43:46;17.70;;;8.93;;
57441;SDS011;43284;47.042;15.498;2022-12-29T02:49:13;17.60;;;7.85;;
57441;SDS011;43284;47.042;15.498;2022-12-29T02:51:52;19.83;;;8.27;;
57441;SDS011;43284;47.042;15.498;2022-12-29T02:54:23;20.67;;;8.00;;
57441;SDS011;43284;47.042;15.498;2022-12-29T02:59:38;15.25;;;7.30;;
57441;SDS011;43284;47.042;15.498;2022-12-29T03:02:08;14.53;;;6.70;;
57441;SDS011;43284;47.042;15.498;2022-12-29T03:12:51;14.57;;;6.83;;
57441;SDS011;43284;47.042;15.498;2022-12-29T03:15:46;21.30;;;8.57;;
57441;SDS011;43284;47.042;15.498;2022-12-29T03:24:09;15.53;;;7.73;;
57441;SDS011;43284;47.042;15.498;2022-12-29T03:26:36;17.63;;;7.57;;
57441;SDS011;43284;47.042;15.498;2022-12-29T03:29:02;25.67;;;9.07;;
57441;SDS011;43284;47.042;15.498;2022-12-29T03:31:32;18.13;;;7.97;;
57441;SDS011;43284;47.042;15.498;2022-12-29T03:33:57;18.97;;;7.73;;
57441;SDS011;43284;47.042;15.498;2022-12-29T03:36:29;19.27;;;7.43;;
57441;SDS011;43284;47.042;15.498;2022-12-29T03:39:03;17.53;;;7.50;;
57441;SDS011;43284;47.042;15.498;2022-12-29T03:41:36;17.53;;;7.73;;
57441;SDS011;43284;47.042;15.498;2022-12-29T03:44:05;18.77;;;8.47;;
57441;SDS011;43284;47.042;15.498;2022-12-29T03:46:31;16.57;;;7.23;;
57441;SDS011;43284;47.042;15.498;2022-12-29T03:48:57;14.33;;;7.27;;
57441;SDS011;43284;47.042;15.498;2022-12-29T03:51:23;17.73;;;6.93;;
57441;SDS011;43284;47.042;15.498;2022-12-29T03:53:48;17.90;;;8.30;;
57441;SDS011;43284;47.042;15.498;2022-12-29T03:56:14;16.33;;;7.40;;
57441;SDS011;43284;47.042;15.498;2022-12-29T03:58:39;14.07;;;6.83;;
57441;SDS011;43284;47.042;15.498;2022-12-29T04:01:05;18.13;;;7.10;;
57441;SDS011;43284;47.042;15.498;2022-12-29T04:03:30;20.97;;;8.03;;
57441;SDS011;43284;47.042;15.498;2022-12-29T04:05:56;17.60;;;6.83;;
57441;SDS011;43284;47.042;15.498;2022-12-29T04:08:21;12.97;;;7.23;;
57441;SDS011;43284;47.042;15.498;2022-12-29T04:10:50;17.53;;;7.10;;
57441;SDS011;43284;47.042;15.498;2022-12-29T04:13:15;13.57;;;6.63;;
57441;SDS011;43284;47.042;15.498;2022-12-29T04:15:42;15.47;;;7.63;;
57441;SDS011;43284;47.042;15.498;2022-12-29T04:18:08;17.77;;;6.83;;
57441;SDS011;43284;47.042;15.498;2022-12-29T04:20:34;19.30;;;7.37;;
57441;SDS011;43284;47.042;15.498;2022-12-29T04:25:45;17.23;;;7.50;;
57441;SDS011;43284;47.042;15.498;2022-12-29T04:28:12;16.10;;;7.00;;
57441;SDS011;43284;47.042;15.498;2022-12-29T04:30:38;12.97;;;6.57;;
57441;SDS011;43284;47.042;15.498;2022-12-29T04:33:04;19.77;;;8.87;;
57441;SDS011;43284;47.042;15.498;2022-12-29T04:35:29;15.80;;;7.73;;
57441;SDS011;43284;47.042;15.498;2022-12-29T04:37:55;15.17;;;7.70;;
57441;SDS011;43284;47.042;15.498;2022-12-29T04:40:20;15.67;;;8.07;;
57441;SDS011;43284;47.042;15.498;2022-12-29T04:42:46;19.27;;;7.93;;
57441;SDS011;43284;47.042;15.498;2022-12-29T04:45:11;19.87;;;8.83;;
57441;SDS011;43284;47.042;15.498;2022-12-29T04:47:37;20.20;;;8.87;;
57441;SDS011;43284;47.042;15.498;2022-12-29T04:50:02;12.30;;;5.90;;
57441;SDS011;43284;47.042;15.498;2022-12-29T04:52:28;15.07;;;6.10;;
57441;SDS011;43284;47.042;15.498;2022-12-29T04:54:54;13.17;;;6.20;;
57441;SDS011;43284;47.042;15.498;2022-12-29T04:57:19;14.97;;;6.43;;
57441;SDS011;43284;47.042;15.498;2022-12-29T04:59:45;15.53;;;6.27;;
57441;SDS011;43284;47.042;15.498;2022-12-29T05:02:11;14.83;;;5.87;;
57441;SDS011;43284;47.042;15.498;2022-12-29T05:04:36;14.93;;;5.90;;
57441;SDS011;43284;47.042;15.498;2022-12-29T05:07:02;14.00;;;6.32;;
57441;SDS011;43284;47.042;15.498;2022-12-29T05:09:28;15.73;;;6.53;;
57441;SDS011;43284;47.042;15.498;2022-12-29T05:11:54;15.53;;;6.13;;
57441;SDS011;43284;47.042;15.498;2022-12-29T05:14:20;15.07;;;7.53;;
57441;SDS011;43284;47.042;15.498;2022-12-29T05:16:46;13.20;;;7.47;;
57441;SDS011;43284;47.042;15.498;2022-12-29T05:19:12;18.63;;;7.23;;
57441;SDS011;43284;47.042;15.498;2022-12-29T05:21:37;14.17;;;6.33;;
57441;SDS011;43284;47.042;15.498;2022-12-29T05:24:03;17.17;;;7.67;;
57441;SDS011;43284;47.042;15.498;2022-12-29T05:26:28;15.87;;;8.13;;
57441;SDS011;43284;47.042;15.498;2022-12-29T05:28:54;19.30;;;9.33;;
57441;SDS011;43284;47.042;15.498;2022-12-29T05:31:19;20.43;;;9.47;;
57441;SDS011;43284;47.042;15.498;2022-12-29T05:33:45;18.00;;;8.40;;
57441;SDS011;43284;47.042;15.498;2022-12-29T05:36:10;19.50;;;9.47;;
57441;SDS011;43284;47.042;15.498;2022-12-29T05:38:36;20.00;;;9.83;;
57441;SDS011;43284;47.042;15.498;2022-12-29T05:41:02;28.33;;;10.90;;
57441;SDS011;43284;47.042;15.498;2022-12-29T05:43:27;19.47;;;8.93;;
57441;SDS011;43284;47.042;15.498;2022-12-29T05:45:53;14.23;;;6.90;;
57441;SDS011;43284;47.042;15.498;2022-12-29T05:48:20;14.80;;;6.50;;
57441;SDS011;43284;47.042;15.498;2022-12-29T05:50:49;14.87;;;7.30;;
57441;SDS011;43284;47.042;15.498;2022-12-29T05:53:15;18.47;;;7.87;;
57441;SDS011;43284;47.042;15.498;2022-12-29T05:55:42;18.00;;;8.23;;
57441;SDS011;43284;47.042;15.498;2022-12-29T05:58:08;12.23;;;6.27;;
57441;SDS011;43284;47.042;15.498;2022-12-29T06:00:34;18.30;;;6.90;;
57441;SDS011;43284;47.042;15.498;2022-12-29T06:02:59;13.97;;;6.17;;
57441;SDS011;43284;47.042;15.498;2022-12-29T06:05:25;16.40;;;6.77;;
57441;SDS011;43284;47.042;15.498;2022-12-29T06:07:50;13.20;;;6.63;;
57441;SDS011;43284;47.042;15.498;2022-12-29T06:10:16;11.50;;;6.10;;
57441;SDS011;43284;47.042;15.498;2022-12-29T06:12:42;16.97;;;6.80;;
57441;SDS011;43284;47.042;15.498;2022-12-29T06:15:07;13.33;;;6.67;;
57441;SDS011;43284;47.042;15.498;2022-12-29T06:17:33;16.17;;;7.23;;
57441;SDS011;43284;47.042;15.498;2022-12-29T06:19:59;14.13;;;6.67;;
57441;SDS011;43284;47.042;15.498;2022-12-29T06:22:24;13.23;;;6.30;;
57441;SDS011;43284;47.042;15.498;2022-12-29T06:24:50;12.13;;;5.70;;
57441;SDS011;43284;47.042;15.498;2022-12-29T06:27:15;12.23;;;6.47;;
57441;SDS011;43284;47.042;15.498;2022-12-29T06:29:41;16.13;;;6.60;;
57441;SDS011;43284;47.042;15.498;2022-12-29T06:32:08;20.97;;;7.43;;
57441;SDS011;43284;47.042;15.498;2022-12-29T06:34:34;17.97;;;7.87;;
57441;SDS011;43284;47.042;15.498;2022-12-29T06:37:00;18.40;;;7.70;;
57441;SDS011;43284;47.042;15.498;2022-12-29T06:39:26;20.57;;;7.67;;
57441;SDS011;43284;47.042;15.498;2022-12-29T06:41:52;19.83;;;8.20;;
57441;SDS011;43284;47.042;15.498;2022-12-29T06:44:20;18.47;;;7.83;;
57441;SDS011;43284;47.042;15.498;2022-12-29T06:46:46;18.23;;;8.13;;
57441;SDS011;43284;47.042;15.498;2022-12-29T06:49:12;15.10;;;6.87;;
57441;SDS011;43284;47.042;15.498;2022-12-29T06:51:37;17.23;;;6.80;;
57441;SDS011;43284;47.042;15.498;2022-12-29T06:54:03;16.47;;;7.83;;
57441;SDS011;43284;47.042;15.498;2022-12-29T06:56:28;17.40;;;7.43;;
57441;SDS011;43284;47.042;15.498;2022-12-29T06:58:54;18.50;;;7.27;;
57441;SDS011;43284;47.042;15.498;2022-12-29T07:01:20;19.60;;;8.07;;
57441;SDS011;43284;47.042;15.498;2022-12-29T07:03:45;16.87;;;8.17;;
57441;SDS011;43284;47.042;15.498;2022-12-29T07:06:10;19.73;;;8.43;;
57441;SDS011;43284;47.042;15.498;2022-12-29T07:08:36;16.93;;;7.17;;
57441;SDS011;43284;47.042;15.498;2022-12-29T07:11:02;19.40;;;7.63;;
57441;SDS011;43284;47.042;15.498;2022-12-29T07:13:27;15.93;;;7.63;;
57441;SDS011;43284;47.042;15.498;2022-12-29T07:15:53;16.33;;;6.97;;
57441;SDS011;43284;47.042;15.498;2022-12-29T07:18:19;16.30;;;6.77;;
57441;SDS011;43284;47.042;15.498;2022-12-29T07:20:44;18.67;;;8.57;;
57441;SDS011;43284;47.042;15.498;2022-12-29T07:23:10;17.80;;;6.97;;
57441;SDS011;43284;47.042;15.498;2022-12-29T07:25:36;18.13;;;8.07;;
57441;SDS011;43284;47.042;15.498;2022-12-29T07:28:02;14.87;;;7.10;;
57441;SDS011;43284;47.042;15.498;2022-12-29T07:30:28;15.33;;;7.37;;
57441;SDS011;43284;47.042;15.498;2022-12-29T07:32:53;12.07;;;6.63;;
57441;SDS011;43284;47.042;15.498;2022-12-29T07:35:19;18.20;;;6.80;;
57441;SDS011;43284;47.042;15.498;2022-12-29T07:37:44;16.77;;;7.13;;
57441;SDS011;43284;47.042;15.498;2022-12-29T07:40:10;13.57;;;7.07;;
57441;SDS011;43284;47.042;15.498;2022-12-29T07:42:36;17.57;;;7.10;;
57441;SDS011;43284;47.042;15.498;2022-12-29T07:45:01;16.60;;;8.07;;
57441;SDS011;43284;47.042;15.498;2022-12-29T07:47:27;19.10;;;7.53;;
57441;SDS011;43284;47.042;15.498;2022-12-29T07:49:53;18.33;;;8.10;;
57441;SDS011;43284;47.042;15.498;2022-12-29T07:52:18;17.60;;;7.40;;
57441;SDS011;43284;47.042;15.498;2022-12-29T07:54:44;18.30;;;7.80;;
57441;SDS011;43284;47.042;15.498;2022-12-29T07:57:10;16.87;;;8.27;;
57441;SDS011;43284;47.042;15.498;2022-12-29T07:59:35;14.90;;;8.10;;
57441;SDS011;43284;47.042;15.498;2022-12-29T08:02:01;13.73;;;7.50;;
57441;SDS011;43284;47.042;15.498;2022-12-29T08:04:26;18.42;;;7.97;;
57441;SDS011;43284;47.042;15.498;2022-12-29T08:06:52;16.87;;;7.63;;
57441;SDS011;43284;47.042;15.498;2022-12-29T08:09:17;19.23;;;8.13;;
57441;SDS011;43284;47.042;15.498;2022-12-29T08:11:43;17.87;;;8.50;;
57441;SDS011;43284;47.042;15.498;2022-12-29T08:14:09;16.58;;;7.68;;
57441;SDS011;43284;47.042;15.498;2022-12-29T08:16:35;23.33;;;10.18;;
57441;SDS011;43284;47.042;15.498;2022-12-29T08:19:01;29.98;;;12.38;;
57441;SDS011;43284;47.042;15.498;2022-12-29T08:21:27;38.20;;;16.48;;
57441;SDS011;43284;47.042;15.498;2022-12-29T08:23:52;39.40;;;18.17;;
57441;SDS011;43284;47.042;15.498;2022-12-29T08:26:18;46.03;;;20.40;;
57441;SDS011;43284;47.042;15.498;2022-12-29T08:28:43;40.75;;;21.13;;
57441;SDS011;43284;47.042;15.498;2022-12-29T08:31:09;44.53;;;19.55;;
57441;SDS011;43284;47.042;15.498;2022-12-29T08:33:35;40.35;;;17.92;;
57441;SDS011;43284;47.042;15.498;2022-12-29T08:36:04;33.78;;;16.23;;
57441;SDS011;43284;47.042;15.498;2022-12-29T08:38:31;46.58;;;21.05;;
57441;SDS011;43284;47.042;15.498;2022-12-29T08:40:58;44.10;;;21.23;;
57441;SDS011;43284;47.042;15.498;2022-12-29T08:43:26;45.17;;;20.70;;
57441;SDS011;43284;47.042;15.498;2022-12-29T08:45:52;38.92;;;19.83;;
57441;SDS011;43284;47.042;15.498;2022-12-29T08:48:18;50.20;;;22.65;;
57441;SDS011;43284;47.042;15.498;2022-12-29T08:50:47;33.65;;;17.13;;
57441;SDS011;43284;47.042;15.498;2022-12-29T08:53:14;38.75;;;17.13;;
57441;SDS011;43284;47.042;15.498;2022-12-29T08:55:40;35.75;;;15.82;;
57441;SDS011;43284;47.042;15.498;2022-12-29T08:58:05;33.10;;;15.15;;
57441;SDS011;43284;47.042;15.498;2022-12-29T09:00:31;30.10;;;15.25;;
57441;SDS011;43284;47.042;15.498;2022-12-29T09:02:57;28.35;;;14.70;;
57441;SDS011;43284;47.042;15.498;2022-12-29T09:05:22;30.88;;;14.48;;
57441;SDS011;43284;47.042;15.498;2022-12-29T09:07:48;32.90;;;13.65;;
57441;SDS011;43284;47.042;15.498;2022-12-29T09:10:13;31.45;;;13.23;;
57441;SDS011;43284;47.042;15.498;2022-12-29T09:12:39;24.10;;;11.82;;
57441;SDS011;43284;47.042;15.498;2022-12-29T09:15:05;20.20;;;10.45;;
57441;SDS011;43284;47.042;15.498;2022-12-29T09:17:31;17.77;;;9.02;;
57441;SDS011;43284;47.042;15.498;2022-12-29T09:20:06;19.98;;;10.85;;
57441;SDS011;43284;47.042;15.498;2022-12-29T09:22:34;26.25;;;11.95;;
57441;SDS011;43284;47.042;15.498;2022-12-29T09:25:00;23.45;;;11.15;;
57441;SDS011;43284;47.042;15.498;2022-12-29T09:27:26;19.90;;;9.40;;
57441;SDS011;43284;47.042;15.498;2022-12-29T09:29:51;23.75;;;10.50;;
57441;SDS011;43284;47.042;15.498;2022-12-29T09:32:17;20.60;;;9.93;;
57441;SDS011;43284;47.042;15.498;2022-12-29T09:34:42;24.02;;;10.68;;
57441;SDS011;43284;47.042;15.498;2022-12-29T09:37:08;20.20;;;9.95;;
57441;SDS011;43284;47.042;15.498;2022-12-29T09:39:34;29.05;;;11.70;;
57441;SDS011;43284;47.042;15.498;2022-12-29T09:44:51;24.45;;;11.13;;
57441;SDS011;43284;47.042;15.498;2022-12-29T09:47:25;21.38;;;10.93;;
57441;SDS011;43284;47.042;15.498;2022-12-29T09:52:25;24.17;;;12.57;;
57441;SDS011;43284;47.042;15.498;2022-12-29T09:54:57;25.20;;;13.95;;
57441;SDS011;43284;47.042;15.498;2022-12-29T09:57:27;26.67;;;13.77;;
57441;SDS011;43284;47.042;15.498;2022-12-29T10:00:20;30.48;;;14.38;;
57441;SDS011;43284;47.042;15.498;2022-12-29T10:03:15;26.75;;;14.13;;
57441;SDS011;43284;47.042;15.498;2022-12-29T10:08:23;30.45;;;14.80;;
57441;SDS011;43284;47.042;15.498;2022-12-29T10:11:09;34.67;;;16.33;;
57441;SDS011;43284;47.042;15.498;2022-12-29T10:19:17;36.15;;;16.33;;
57441;SDS011;43284;47.042;15.498;2022-12-29T10:21:53;29.55;;;14.32;;
57441;SDS011;43284;47.042;15.498;2022-12-29T10:24:21;28.20;;;14.20;;
57441;SDS011;43284;47.042;15.498;2022-12-29T10:26:47;31.88;;;13.65;;
57441;SDS011;43284;47.042;15.498;2022-12-29T10:31:47;31.58;;;13.18;;
57441;SDS011;43284;47.042;15.498;2022-12-29T10:34:27;32.33;;;13.57;;
57441;SDS011;43284;47.042;15.498;2022-12-29T10:37:00;24.80;;;12.55;;
57441;SDS011;43284;47.042;15.498;2022-12-29T10:39:43;22.90;;;12.40;;
57441;SDS011;43284;47.042;15.498;2022-12-29T10:44:53;24.98;;;11.18;;
57441;SDS011;43284;47.042;15.498;2022-12-29T10:47:29;26.25;;;11.45;;
57441;SDS011;43284;47.042;15.498;2022-12-29T10:49:59;26.02;;;11.50;;
57441;SDS011;43284;47.042;15.498;2022-12-29T10:52:26;23.88;;;11.88;;
57441;SDS011;43284;47.042;15.498;2022-12-29T10:54:59;22.50;;;12.23;;
57441;SDS011;43284;47.042;15.498;2022-12-29T10:57:33;27.00;;;10.75;;
57441;SDS011;43284;47.042;15.498;2022-12-29T11:00:12;21.58;;;11.02;;
57441;SDS011;43284;47.042;15.498;2022-12-29T11:05:32;18.33;;;9.82;;
57441;SDS011;43284;47.042;15.498;2022-12-29T11:08:17;22.33;;;9.93;;
57441;SDS011;43284;47.042;15.498;2022-12-29T11:11:02;24.67;;;10.90;;
57441;SDS011;43284;47.042;15.498;2022-12-29T11:13:31;23.08;;;10.55;;
57441;SDS011;43284;47.042;15.498;2022-12-29T11:16:12;22.77;;;10.50;;
57441;SDS011;43284;47.042;15.498;2022-12-29T11:18:38;25.52;;;11.05;;
57441;SDS011;43284;47.042;15.498;2022-12-29T11:24:14;19.48;;;9.35;;
57441;SDS011;43284;47.042;15.498;2022-12-29T11:26:49;17.42;;;8.57;;
57441;SDS011;43284;47.042;15.498;2022-12-29T11:29:25;18.60;;;9.25;;
57441;SDS011;43284;47.042;15.498;2022-12-29T11:31:55;18.95;;;9.32;;
57441;SDS011;43284;47.042;15.498;2022-12-29T11:34:25;18.95;;;8.80;;
57441;SDS011;43284;47.042;15.498;2022-12-29T11:37:30;21.15;;;9.73;;
57441;SDS011;43284;47.042;15.498;2022-12-29T11:40:15;20.27;;;9.75;;
57441;SDS011;43284;47.042;15.498;2022-12-29T11:42:53;26.40;;;8.70;;
57441;SDS011;43284;47.042;15.498;2022-12-29T11:45:31;20.92;;;7.88;;
57441;SDS011;43284;47.042;15.498;2022-12-29T11:48:07;18.25;;;8.32;;
57441;SDS011;43284;47.042;15.498;2022-12-29T11:50:39;18.85;;;8.63;;
57441;SDS011;43284;47.042;15.498;2022-12-29T11:55:52;17.45;;;8.93;;
57441;SDS011;43284;47.042;15.498;2022-12-29T11:58:19;19.83;;;9.23;;
57441;SDS011;43284;47.042;15.498;2022-12-29T12:00:44;22.98;;;9.05;;
57441;SDS011;43284;47.042;15.498;2022-12-29T12:03:22;18.55;;;9.18;;
57441;SDS011;43284;47.042;15.498;2022-12-29T12:05:54;18.67;;;8.77;;
57441;SDS011;43284;47.042;15.498;2022-12-29T12:11:10;20.58;;;9.10;;
57441;SDS011;43284;47.042;15.498;2022-12-29T12:13:55;18.15;;;6.72;;
57441;SDS011;43284;47.042;15.498;2022-12-29T12:16:41;18.45;;;7.55;;
57441;SDS011;43284;47.042;15.498;2022-12-29T12:21:46;12.93;;;6.40;;
57441;SDS011;43284;47.042;15.498;2022-12-29T12:30:21;3.95;;;2.30;;
57441;SDS011;43284;47.042;15.498;2022-12-29T12:32:56;7.45;;;3.42;;
57441;SDS011;43284;47.042;15.498;2022-12-29T12:38:36;8.25;;;3.92;;
57441;SDS011;43284;47.042;15.498;2022-12-29T12:41:08;12.07;;;4.72;;
57441;SDS011;43284;47.042;15.498;2022-12-29T13:07:13;5.40;;;3.40;;
57441;SDS011;43284;47.042;15.498;2022-12-29T13:09:44;7.75;;;3.45;;
57441;SDS011;43284;47.042;15.498;2022-12-29T13:15:15;8.13;;;3.38;;
57441;SDS011;43284;47.042;15.498;2022-12-29T13:20:49;11.80;;;4.85;;
57441;SDS011;43284;47.042;15.498;2022-12-29T13:23:24;9.20;;;4.10;;
57441;SDS011;43284;47.042;15.498;2022-12-29T13:26:02;8.10;;;4.22;;
57441;SDS011;43284;47.042;15.498;2022-12-29T13:36:47;8.43;;;4.20;;
57441;SDS011;43284;47.042;15.498;2022-12-29T13:39:23;10.00;;;4.33;;
57441;SDS011;43284;47.042;15.498;2022-12-29T13:41:53;10.63;;;3.95;;
57441;SDS011;43284;47.042;15.498;2022-12-29T13:44:27;11.77;;;4.10;;
57441;SDS011;43284;47.042;15.498;2022-12-29T13:46:57;7.53;;;3.72;;
57441;SDS011;43284;47.042;15.498;2022-12-29T13:49:27;6.75;;;3.80;;
57441;SDS011;43284;47.042;15.498;2022-12-29T13:51:58;8.18;;;4.43;;
57441;SDS011;43284;47.042;15.498;2022-12-29T13:54:44;8.30;;;3.67;;
57441;SDS011;43284;47.042;15.498;2022-12-29T14:00:04;7.43;;;3.95;;
57441;SDS011;43284;47.042;15.498;2022-12-29T14:07:57;6.75;;;3.55;;
57441;SDS011;43284;47.042;15.498;2022-12-29T14:13:19;8.15;;;3.88;;
57441;SDS011;43284;47.042;15.498;2022-12-29T14:15:56;6.05;;;3.60;;
57441;SDS011;43284;47.042;15.498;2022-12-29T14:18:24;9.30;;;3.53;;
57441;SDS011;43284;47.042;15.498;2022-12-29T14:23:25;5.55;;;3.40;;
57441;SDS011;43284;47.042;15.498;2022-12-29T14:25:59;7.57;;;3.40;;
57441;SDS011;43284;47.042;15.498;2022-12-29T14:28:26;5.15;;;2.90;;
57441;SDS011;43284;47.042;15.498;2022-12-29T14:30:54;9.57;;;3.47;;
57441;SDS011;43284;47.042;15.498;2022-12-29T14:33:22;8.70;;;3.13;;
57441;SDS011;43284;47.042;15.498;2022-12-29T14:35:51;6.65;;;3.20;;
57441;SDS011;43284;47.042;15.498;2022-12-29T14:40:45;6.53;;;3.42;;
57441;SDS011;43284;47.042;15.498;2022-12-29T14:43:26;7.93;;;3.78;;
57441;SDS011;43284;47.042;15.498;2022-12-29T14:45:54;18.77;;;7.90;;
57441;SDS011;43284;47.042;15.498;2022-12-29T14:50:49;5.43;;;3.17;;
57441;SDS011;43284;47.042;15.498;2022-12-29T14:56:14;5.80;;;2.97;;
57441;SDS011;43284;47.042;15.498;2022-12-29T14:58:47;7.70;;;3.17;;
57441;SDS011;43284;47.042;15.498;2022-12-29T15:01:18;7.03;;;3.15;;
57441;SDS011;43284;47.042;15.498;2022-12-29T15:03:45;6.10;;;3.60;;
57441;SDS011;43284;47.042;15.498;2022-12-29T15:06:15;6.05;;;3.00;;
57441;SDS011;43284;47.042;15.498;2022-12-29T15:08:46;5.15;;;2.90;;
57441;SDS011;43284;47.042;15.498;2022-12-29T15:14:02;8.10;;;3.83;;
57441;SDS011;43284;47.042;15.498;2022-12-29T15:16:48;7.13;;;3.30;;
57441;SDS011;43284;47.042;15.498;2022-12-29T15:19:21;6.57;;;3.03;;
57441;SDS011;43284;47.042;15.498;2022-12-29T15:21:47;8.27;;;3.13;;
57441;SDS011;43284;47.042;15.498;2022-12-29T15:24:14;4.90;;;2.60;;
57441;SDS011;43284;47.042;15.498;2022-12-29T15:26:41;6.13;;;3.38;;
57441;SDS011;43284;47.042;15.498;2022-12-29T15:32:24;6.93;;;3.47;;
57441;SDS011;43284;47.042;15.498;2022-12-29T15:34:55;7.25;;;3.40;;
57441;SDS011;43284;47.042;15.498;2022-12-29T15:37:26;8.23;;;3.00;;
57441;SDS011;43284;47.042;15.498;2022-12-29T15:39:56;7.50;;;3.30;;
57441;SDS011;43284;47.042;15.498;2022-12-29T15:45:23;7.28;;;3.35;;
57441;SDS011;43284;47.042;15.498;2022-12-29T15:53:08;6.30;;;3.53;;
57441;SDS011;43284;47.042;15.498;2022-12-29T15:55:37;5.45;;;3.20;;
57441;SDS011;43284;47.042;15.498;2022-12-29T15:58:15;7.45;;;3.33;;
57441;SDS011;43284;47.042;15.498;2022-12-29T16:00:50;10.20;;;3.92;;
57441;SDS011;43284;47.042;15.498;2022-12-29T16:03:21;12.95;;;4.22;;
57441;SDS011;43284;47.042;15.498;2022-12-29T16:05:51;6.28;;;3.70;;
57441;SDS011;43284;47.042;15.498;2022-12-29T16:10:53;7.28;;;3.55;;
57441;SDS011;43284;47.042;15.498;2022-12-29T16:15:59;7.38;;;3.70;;
57441;SDS011;43284;47.042;15.498;2022-12-29T16:18:46;8.23;;;3.88;;
57441;SDS011;43284;47.042;15.498;2022-12-29T16:21:33;12.07;;;5.13;;
57441;SDS011;43284;47.042;15.498;2022-12-29T16:24:00;8.45;;;4.35;;
57441;SDS011;43284;47.042;15.498;2022-12-29T16:26:30;7.55;;;4.20;;
57441;SDS011;43284;47.042;15.498;2022-12-29T16:28:57;12.80;;;4.07;;
57441;SDS011;43284;47.042;15.498;2022-12-29T16:31:36;8.57;;;3.90;;
57441;SDS011;43284;47.042;15.498;2022-12-29T16:42:57;11.27;;;3.97;;
57441;SDS011;43284;47.042;15.498;2022-12-29T16:50:39;7.15;;;3.65;;
57441;SDS011;43284;47.042;15.498;2022-12-29T16:53:16;6.97;;;4.03;;
57441;SDS011;43284;47.042;15.498;2022-12-29T16:55:49;7.65;;;4.07;;
57441;SDS011;43284;47.042;15.498;2022-12-29T16:58:18;6.22;;;3.63;;
57441;SDS011;43284;47.042;15.498;2022-12-29T17:03:20;12.07;;;3.67;;
57441;SDS011;43284;47.042;15.498;2022-12-29T17:05:46;9.48;;;4.40;;
57441;SDS011;43284;47.042;15.498;2022-12-29T17:08:18;10.90;;;3.67;;
57441;SDS011;43284;47.042;15.498;2022-12-29T17:10:51;8.95;;;3.97;;
57441;SDS011;43284;47.042;15.498;2022-12-29T17:13:37;6.53;;;3.67;;
57441;SDS011;43284;47.042;15.498;2022-12-29T17:16:04;10.10;;;3.75;;
57441;SDS011;43284;47.042;15.498;2022-12-29T17:18:32;9.80;;;3.45;;
57441;SDS011;43284;47.042;15.498;2022-12-29T17:20:58;14.10;;;6.43;;
57441;SDS011;43284;47.042;15.498;2022-12-29T17:23:23;17.05;;;7.22;;
57441;SDS011;43284;47.042;15.498;2022-12-29T17:25:49;15.52;;;7.22;;
57441;SDS011;43284;47.042;15.498;2022-12-29T17:28:20;9.73;;;5.00;;
57441;SDS011;43284;47.042;15.498;2022-12-29T17:30:46;12.07;;;4.88;;
57441;SDS011;43284;47.042;15.498;2022-12-29T17:33:13;10.00;;;5.13;;
57441;SDS011;43284;47.042;15.498;2022-12-29T17:35:41;9.13;;;5.20;;
57441;SDS011;43284;47.042;15.498;2022-12-29T17:38:19;16.30;;;6.82;;
57441;SDS011;43284;47.042;15.498;2022-12-29T17:40:47;10.63;;;5.57;;